BAW907 EDDF-EGLL
Flight info
| Callsign | BAW907 |
|---|---|
| Flight time | N/A |
| Altitude | 38000 |
| Route | OBOKA3W/25C OBOKA Z29 TORNU DCT ABNED L980 LOGAN |
| Aircraft | A320/M-SDE3FGHIRWY/LB1 |
Departure
| Time | N/A |
|---|---|
| Airport | Frankfurt Main Airport (EDDF) |
Arrival
| Time | 2026-05-03 20:33 |
|---|---|
| Airport | London Heathrow Airport (EGLL) |
| Time | Latitude | Longitude | Altitude | Speed | Heading |
|---|---|---|---|---|---|
| 2026-05-03 20:15 | 51.70936 | 1.03029 | 16779 ft | 319 kts | 261° |
| 2026-05-03 20:15 | 51.70691 | 0.99517 | 16294 ft | 319 kts | 262° |
| 2026-05-03 20:15 | 51.70444 | 0.95961 | 15845 ft | 317 kts | 262° |
| 2026-05-03 20:15 | 51.70201 | 0.92413 | 15483 ft | 313 kts | 262° |
| 2026-05-03 20:16 | 51.69964 | 0.88974 | 15184 ft | 308 kts | 262° |
| 2026-05-03 20:16 | 51.69729 | 0.85575 | 14886 ft | 303 kts | 262° |
| 2026-05-03 20:16 | 51.69499 | 0.82226 | 14595 ft | 300 kts | 262° |
| 2026-05-03 20:16 | 51.69269 | 0.78909 | 14302 ft | 299 kts | 262° |
| 2026-05-03 20:17 | 51.69033 | 0.75548 | 14011 ft | 297 kts | 262° |
| 2026-05-03 20:17 | 51.68796 | 0.72248 | 13725 ft | 296 kts | 262° |
| 2026-05-03 20:17 | 51.68561 | 0.68976 | 13410 ft | 295 kts | 262° |
| 2026-05-03 20:17 | 51.68326 | 0.65684 | 13087 ft | 294 kts | 262° |
| 2026-05-03 20:18 | 51.68094 | 0.62437 | 12775 ft | 293 kts | 262° |
| 2026-05-03 20:18 | 51.67863 | 0.59195 | 12465 ft | 292 kts | 262° |
| 2026-05-03 20:18 | 51.67627 | 0.55922 | 12152 ft | 291 kts | 262° |
| 2026-05-03 20:18 | 51.67395 | 0.52703 | 11845 ft | 290 kts | 262° |
| 2026-05-03 20:19 | 51.67154 | 0.49418 | 11205 ft | 298 kts | 262° |
| 2026-05-03 20:19 | 51.66917 | 0.46169 | 10922 ft | 293 kts | 262° |
| 2026-05-03 20:19 | 51.66679 | 0.42928 | 10589 ft | 290 kts | 262° |
| 2026-05-03 20:19 | 51.66441 | 0.39696 | 10223 ft | 289 kts | 262° |
| 2026-05-03 20:20 | 51.66204 | 0.36487 | 9855 ft | 288 kts | 262° |
| 2026-05-03 20:20 | 51.65968 | 0.33316 | 9449 ft | 285 kts | 262° |
| 2026-05-03 20:20 | 51.65733 | 0.30172 | 8772 ft | 282 kts | 262° |
| 2026-05-03 20:20 | 51.65495 | 0.27018 | 8085 ft | 281 kts | 262° |
| 2026-05-03 20:21 | 51.65257 | 0.23878 | 7556 ft | 279 kts | 262° |
| 2026-05-03 20:21 | 51.65026 | 0.20831 | 7150 ft | 268 kts | 262° |
| 2026-05-03 20:21 | 51.64810 | 0.17957 | 7029 ft | 248 kts | 262° |
| 2026-05-03 20:21 | 51.64624 | 0.15280 | 6930 ft | 242 kts | 267° |
| 2026-05-03 20:22 | 51.64703 | 0.12587 | 6895 ft | 243 kts | 273° |
| 2026-05-03 20:22 | 51.64812 | 0.09892 | 6895 ft | 243 kts | 272° |
| 2026-05-03 20:22 | 51.64914 | 0.07165 | 6898 ft | 243 kts | 272° |
| 2026-05-03 20:22 | 51.65012 | 0.04466 | 6894 ft | 243 kts | 272° |
| 2026-05-03 20:23 | 51.65109 | 0.01768 | 6897 ft | 242 kts | 272° |
| 2026-05-03 20:23 | 51.65204 | -0.00950 | 6896 ft | 242 kts | 272° |
| 2026-05-03 20:23 | 51.65297 | -0.03645 | 6895 ft | 242 kts | 272° |
| 2026-05-03 20:23 | 51.65392 | -0.06365 | 6915 ft | 243 kts | 272° |
| 2026-05-03 20:24 | 51.65486 | -0.09071 | 6918 ft | 242 kts | 272° |
| 2026-05-03 20:24 | 51.65580 | -0.11792 | 6920 ft | 243 kts | 272° |
| 2026-05-03 20:24 | 51.65651 | -0.14514 | 6901 ft | 242 kts | 266° |
| 2026-05-03 20:24 | 51.65291 | -0.17151 | 6470 ft | 247 kts | 242° |
| 2026-05-03 20:25 | 51.64239 | -0.19247 | 6233 ft | 240 kts | 216° |
| 2026-05-03 20:25 | 51.62749 | -0.20383 | 5944 ft | 235 kts | 197° |
| 2026-05-03 20:25 | 51.61158 | -0.21174 | 5395 ft | 244 kts | 197° |
| 2026-05-03 20:25 | 51.59534 | -0.21979 | 5155 ft | 239 kts | 196° |
| 2026-05-03 20:26 | 51.57941 | -0.22211 | 5004 ft | 232 kts | 166° |
| 2026-05-03 20:26 | 51.56556 | -0.20929 | 4764 ft | 233 kts | 131° |
| 2026-05-03 20:26 | 51.55574 | -0.18926 | 4480 ft | 223 kts | 127° |
| 2026-05-03 20:26 | 51.54674 | -0.17010 | 4228 ft | 211 kts | 127° |
| 2026-05-03 20:27 | 51.53815 | -0.15173 | 3989 ft | 199 kts | 127° |
| 2026-05-03 20:27 | 51.53006 | -0.13452 | 3823 ft | 192 kts | 127° |
| 2026-05-03 20:27 | 51.52159 | -0.11783 | 3699 ft | 191 kts | 139° |
| 2026-05-03 20:27 | 51.51072 | -0.10588 | 3595 ft | 191 kts | 150° |
| 2026-05-03 20:28 | 51.49816 | -0.09992 | 3454 ft | 190 kts | 185° |
| 2026-05-03 20:28 | 51.48592 | -0.10720 | 3339 ft | 189 kts | 221° |
| 2026-05-03 20:28 | 51.47880 | -0.12428 | 3222 ft | 189 kts | 257° |
| 2026-05-03 20:28 | 51.47804 | -0.14540 | 3116 ft | 189 kts | 271° |
| 2026-05-03 20:29 | 51.47808 | -0.16634 | 2975 ft | 188 kts | 270° |
| 2026-05-03 20:29 | 51.47808 | -0.18728 | 2824 ft | 188 kts | 270° |
| 2026-05-03 20:29 | 51.47806 | -0.20836 | 2722 ft | 188 kts | 270° |
| 2026-05-03 20:29 | 51.47804 | -0.22915 | 2557 ft | 187 kts | 270° |
| 2026-05-03 20:30 | 51.47802 | -0.24991 | 2338 ft | 185 kts | 270° |
| 2026-05-03 20:30 | 51.47799 | -0.27069 | 2099 ft | 190 kts | 270° |
| 2026-05-03 20:30 | 51.47796 | -0.29210 | 1881 ft | 190 kts | 270° |
| 2026-05-03 20:30 | 51.47792 | -0.31294 | 1614 ft | 187 kts | 270° |
| 2026-05-03 20:31 | 51.47789 | -0.33332 | 1364 ft | 177 kts | 269° |
| 2026-05-03 20:31 | 51.47785 | -0.35232 | 1129 ft | 161 kts | 270° |
| 2026-05-03 20:31 | 51.47782 | -0.36884 | 937 ft | 139 kts | 269° |
| 2026-05-03 20:31 | 51.47778 | -0.38402 | 748 ft | 136 kts | 269° |
| 2026-05-03 20:32 | 51.47778 | -0.39930 | 562 ft | 136 kts | 269° |
| 2026-05-03 20:32 | 51.47777 | -0.41438 | 369 ft | 136 kts | 269° |
| 2026-05-03 20:32 | 51.47772 | -0.42945 | 193 ft | 136 kts | 269° |
| 2026-05-03 20:32 | 51.47764 | -0.44434 | 88 ft | 115 kts | 271° |
| 2026-05-03 20:33 | 51.47760 | -0.45273 | 88 ft | 45 kts | 269° |
| 2026-05-03 20:33 | 51.47744 | -0.45453 | 87 ft | 7 kts | 207° |
| 2026-05-03 20:33 | 51.47674 | -0.45468 | 86 ft | 13 kts | 178° |
| 2026-05-03 20:33 | 51.47604 | -0.45471 | 87 ft | 8 kts | 195° |
| 2026-05-03 20:34 | 51.47597 | -0.45504 | 87 ft | 3 kts | 270° |
| 2026-05-03 20:34 | 51.47597 | -0.45574 | 87 ft | 9 kts | 269° |
| 2026-05-03 20:34 | 51.47595 | -0.45714 | 89 ft | 16 kts | 269° |
| 2026-05-03 20:34 | 51.47592 | -0.45923 | 88 ft | 22 kts | 268° |
| 2026-05-03 20:35 | 51.47594 | -0.46199 | 87 ft | 28 kts | 270° |
| 2026-05-03 20:35 | 51.47593 | -0.46522 | 87 ft | 30 kts | 269° |
| 2026-05-03 20:35 | 51.47585 | -0.46870 | 89 ft | 32 kts | 264° |
| 2026-05-03 20:35 | 51.47581 | -0.47240 | 87 ft | 34 kts | 269° |
| 2026-05-03 20:36 | 51.47580 | -0.47622 | 90 ft | 35 kts | 270° |
| 2026-05-03 20:36 | 51.47579 | -0.48023 | 89 ft | 36 kts | 269° |
| 2026-05-03 20:36 | 51.47577 | -0.48379 | 89 ft | 28 kts | 269° |
| 2026-05-03 20:36 | 51.47533 | -0.48479 | 89 ft | 11 kts | 182° |
| 2026-05-03 20:37 | 51.47450 | -0.48476 | 87 ft | 13 kts | 182° |
| 2026-05-03 20:37 | 51.47360 | -0.48478 | 87 ft | 12 kts | 180° |
| 2026-05-03 20:37 | 51.47352 | -0.48478 | 87 ft | 0 kts | 180° |
| 2026-05-03 20:38 | 51.47343 | -0.48477 | 89 ft | 3 kts | 179° |
| 2026-05-03 20:38 | 51.47322 | -0.48480 | 87 ft | 2 kts | 200° |
| 2026-05-03 20:39 | 51.47318 | -0.48501 | 89 ft | 3 kts | 253° |
| 2026-05-03 20:39 | 51.47316 | -0.48543 | 87 ft | 5 kts | 269° |
| 2026-05-03 20:39 | 51.47315 | -0.48594 | 87 ft | 0 kts | 269° |